Time;durP1;ratioP1;P1;durP2;ratioP2;P2;SDS_P1;SDS_P2;PMS_P1;PMS_P2;Temp;Humidity;BMP_temperature;BMP_pressure;BME280_temperature;BME280_humidity;BME280_pressure;Samples;Min_cycle;Max_cycle;Signal;HPM_P1;HPM_P2
2021/08/20 00:02:10;;;;;;;1999.90;999.90;;;16.60;99.90;;;;;;5108374;28;20480;-87
2021/08/20 00:04:37;;;;;;;1999.90;999.90;;;16.60;99.90;;;;;;5111122;28;20524;-86
2021/08/20 00:07:04;;;;;;;1999.90;999.90;;;16.60;99.90;;;;;;5110035;28;20537;-86
2021/08/20 00:09:31;;;;;;;1999.90;999.90;;;16.50;99.90;;;;;;5110308;28;20459;-88
2021/08/20 00:11:58;;;;;;;1999.90;999.90;;;16.50;99.90;;;;;;5109590;28;20465;-87
2021/08/20 00:14:25;;;;;;;1999.90;999.90;;;16.50;99.90;;;;;;5100271;28;20457;-86
2021/08/20 00:16:52;;;;;;;1999.90;999.90;;;16.50;99.90;;;;;;5099672;28;20450;-87
2021/08/20 00:19:20;;;;;;;1999.90;999.90;;;16.50;99.90;;;;;;5101983;28;20477;-86
2021/08/20 00:21:47;;;;;;;1999.90;999.90;;;16.50;99.90;;;;;;5109000;28;20481;-86
2021/08/20 00:24:15;;;;;;;1999.90;999.90;;;16.50;99.90;;;;;;5109106;28;20518;-86
2021/08/20 00:26:42;;;;;;;1999.90;999.90;;;16.50;99.90;;;;;;5109126;28;21007;-87
2021/08/20 00:29:09;;;;;;;1999.90;999.90;;;16.50;99.90;;;;;;5109935;28;20448;-85
2021/08/20 00:31:36;;;;;;;1999.90;999.90;;;16.60;99.90;;;;;;5103361;28;20485;-84
2021/08/20 00:34:03;;;;;;;1999.90;999.90;;;16.60;99.90;;;;;;5097975;28;20457;-85
2021/08/20 00:36:31;;;;;;;1999.90;999.90;;;16.60;99.90;;;;;;5096945;28;20856;-86
2021/08/20 00:38:58;;;;;;;1999.90;999.90;;;16.60;99.90;;;;;;5096656;28;20498;-85
2021/08/20 00:41:25;;;;;;;1999.90;999.90;;;16.70;99.90;;;;;;5097220;28;20468;-84
2021/08/20 00:43:52;;;;;;;1999.90;999.90;;;16.70;99.90;;;;;;5097120;28;20450;-85
2021/08/20 00:46:19;;;;;;;1999.90;999.90;;;16.70;99.90;;;;;;5096073;28;20948;-85
2021/08/20 00:48:46;;;;;;;1999.90;999.90;;;16.70;99.90;;;;;;5095965;28;20457;-86
2021/08/20 00:51:18;;;;;;;1999.90;999.90;;;16.70;99.90;;;;;;5094785;28;20477;-85
2021/08/20 00:53:47;;;;;;;1999.90;999.90;;;16.60;99.90;;;;;;5092474;28;20462;-85
2021/08/20 00:56:15;;;;;;;1999.90;999.90;;;16.60;99.90;;;;;;5080732;28;20449;-86
2021/08/20 00:58:42;;;;;;;1999.90;999.90;;;16.60;99.90;;;;;;5093190;28;20846;-86
2021/08/20 01:01:10;;;;;;;1999.90;999.90;;;16.60;99.90;;;;;;5090483;28;20467;-86
2021/08/20 01:03:38;;;;;;;1999.90;999.90;;;16.60;99.90;;;;;;5094032;28;20439;-85
2021/08/20 01:06:06;;;;;;;1999.90;999.90;;;16.60;99.90;;;;;;5094229;28;20446;-85
2021/08/20 01:08:34;;;;;;;1999.90;999.90;;;16.60;99.90;;;;;;5093869;28;20478;-86
2021/08/20 01:11:05;;;;;;;1999.90;999.90;;;16.60;99.90;;;;;;5093333;28;20471;-86
2021/08/20 01:13:33;;;;;;;1999.90;999.90;;;16.60;99.90;;;;;;5092733;28;21047;-86
2021/08/20 01:16:01;;;;;;;1999.90;999.90;;;16.60;99.90;;;;;;5093399;28;20454;-85
2021/08/20 01:18:30;;;;;;;1999.90;999.90;;;16.60;99.90;;;;;;5092488;28;20450;-86
2021/08/20 01:21:00;;;;;;;1999.90;999.90;;;16.60;99.90;;;;;;5092812;28;21017;-86
2021/08/20 01:23:27;;;;;;;1999.90;999.90;;;16.60;99.90;;;;;;5092717;28;20459;-86
2021/08/20 01:25:56;;;;;;;1999.90;999.90;;;16.60;99.90;;;;;;5092809;28;20450;-86
2021/08/20 01:28:24;;;;;;;1999.90;999.90;;;16.50;99.90;;;;;;5092419;28;20450;-86
2021/08/20 01:30:52;;;;;;;1999.90;999.90;;;16.60;99.90;;;;;;5115728;28;20477;-86
2021/08/20 01:33:19;;;;;;;1999.90;999.90;;;16.60;99.90;;;;;;5100960;28;20513;-86
2021/08/20 01:35:46;;;;;;;1999.90;999.90;;;16.70;99.90;;;;;;5097228;28;21025;-86
2021/08/20 01:38:13;;;;;;;1999.90;999.90;;;16.60;99.90;;;;;;5096523;28;20456;-86
2021/08/20 01:40:40;;;;;;;1999.90;999.90;;;16.60;99.90;;;;;;5095291;28;20956;-86
2021/08/20 01:43:08;;;;;;;1999.90;999.90;;;16.50;99.90;;;;;;5094935;28;21033;-86
2021/08/20 01:45:36;;;;;;;1999.90;999.90;;;16.50;99.90;;;;;;5096081;28;20461;-86
2021/08/20 01:48:02;;;;;;;1999.90;999.90;;;16.50;99.90;;;;;;5097864;28;20520;-86
2021/08/20 01:50:30;;;;;;;1999.90;999.90;;;16.50;99.90;;;;;;5096202;28;21088;-86
2021/08/20 01:52:56;;;;;;;1999.90;999.90;;;16.50;99.90;;;;;;5092515;28;20452;-86
2021/08/20 01:55:23;;;;;;;1999.90;999.90;;;16.50;99.90;;;;;;5092762;28;20454;-86
2021/08/20 01:57:51;;;;;;;1999.90;999.90;;;16.50;99.90;;;;;;5092712;28;20452;-86
2021/08/20 02:00:20;;;;;;;1999.90;999.90;;;16.50;99.90;;;;;;5092285;28;20493;-87
2021/08/20 02:02:47;;;;;;;1999.90;999.90;;;16.40;99.90;;;;;;5092401;28;20448;-86
2021/08/20 02:05:14;;;;;;;1999.90;999.90;;;16.40;99.90;;;;;;5092127;28;20960;-86
2021/08/20 02:07:40;;;;;;;1999.90;999.90;;;16.50;99.90;;;;;;5091578;28;20952;-88
2021/08/20 02:10:09;;;;;;;1999.90;999.90;;;16.40;99.90;;;;;;5092281;28;20542;-86
2021/08/20 02:12:36;;;;;;;1999.90;999.90;;;16.40;99.90;;;;;;5091933;28;20949;-86
2021/08/20 02:15:03;;;;;;;1999.90;999.90;;;16.40;99.90;;;;;;5091880;28;20453;-86
2021/08/20 02:17:32;;;;;;;1999.90;999.90;;;16.50;99.90;;;;;;5091504;28;20449;-86
2021/08/20 02:19:59;;;;;;;1999.90;999.90;;;16.40;99.90;;;;;;5089617;28;20485;-87
2021/08/20 02:22:25;;;;;;;1999.90;999.90;;;16.40;99.90;;;;;;5090340;28;20839;-85
2021/08/20 02:24:54;;;;;;;1999.90;999.90;;;16.50;99.90;;;;;;5091202;28;20455;-86
2021/08/20 02:27:21;;;;;;;1999.90;999.90;;;16.50;99.90;;;;;;5086024;28;20442;-86
2021/08/20 02:29:49;;;;;;;1999.90;999.90;;;16.50;99.90;;;;;;5088609;28;20457;-85
2021/08/20 02:32:16;;;;;;;1999.90;999.90;;;16.60;99.90;;;;;;5087388;28;20473;-86
2021/08/20 02:34:45;;;;;;;1999.90;999.90;;;16.50;99.90;;;;;;5093405;28;20965;-83
2021/08/20 02:37:12;;;;;;;1999.90;999.90;;;16.50;99.90;;;;;;5095280;28;20450;-85
2021/08/20 02:39:39;;;;;;;1999.90;999.90;;;16.50;99.90;;;;;;5096476;28;20480;-85
2021/08/20 02:42:06;;;;;;;1999.90;999.90;;;16.50;99.90;;;;;;5094412;28;20477;-86
2021/08/20 02:44:33;;;;;;;1999.90;999.90;;;16.50;99.90;;;;;;5092735;28;20450;-86
2021/08/20 02:47:00;;;;;;;1999.90;999.90;;;16.60;99.90;;;;;;5092627;28;20457;-85
2021/08/20 02:49:26;;;;;;;1999.90;999.90;;;16.60;99.90;;;;;;5100014;28;20525;-87
2021/08/20 02:51:55;;;;;;;1999.90;999.90;;;16.60;99.90;;;;;;5099900;28;20465;-85
2021/08/20 02:54:21;;;;;;;1999.90;999.90;;;16.60;99.90;;;;;;5101988;28;20457;-86
2021/08/20 02:56:48;;;;;;;1999.90;999.90;;;16.60;99.90;;;;;;5098780;28;20453;-86
2021/08/20 02:59:15;;;;;;;1999.90;999.90;;;16.60;99.90;;;;;;5096839;28;20864;-86
2021/08/20 03:01:48;;;;;;;1999.90;999.90;;;16.50;99.90;;;;;;5096882;28;20476;-86
2021/08/20 03:04:15;;;;;;;1999.90;999.90;;;16.50;99.90;;;;;;5103410;28;20561;-86
2021/08/20 03:06:42;;;;;;;1999.90;999.90;;;16.50;99.90;;;;;;5099839;28;20446;-86
2021/08/20 03:09:10;;;;;;;1999.90;999.90;;;16.60;99.90;;;;;;5099922;28;20448;-85
2021/08/20 03:11:36;;;;;;;1999.90;999.90;;;16.60;99.90;;;;;;5101482;28;20548;-86
2021/08/20 03:14:04;;;;;;;1999.90;999.90;;;16.50;99.90;;;;;;5107943;28;20468;-86
2021/08/20 03:16:31;;;;;;;1999.90;999.90;;;16.50;99.90;;;;;;5112503;28;20467;-88
2021/08/20 03:18:58;;;;;;;1999.90;999.90;;;16.60;99.90;;;;;;5103303;28;20456;-86
2021/08/20 03:21:25;;;;;;;1999.90;999.90;;;16.60;99.90;;;;;;5106382;28;20540;-85
2021/08/20 03:23:52;;;;;;;1999.90;999.90;;;16.50;99.90;;;;;;5103362;28;21048;-88
2021/08/20 03:26:20;;;;;;;1999.90;999.90;;;16.50;99.90;;;;;;5105643;28;20451;-87
2021/08/20 03:28:47;;;;;;;1999.90;999.90;;;16.50;99.90;;;;;;5098704;28;20552;-85
2021/08/20 03:31:14;;;;;;;1999.90;999.90;;;16.50;99.90;;;;;;5096586;28;20476;-86
2021/08/20 03:33:41;;;;;;;1999.90;999.90;;;16.40;99.90;;;;;;5093508;28;20560;-87
2021/08/20 03:36:08;;;;;;;1999.90;999.90;;;16.40;99.90;;;;;;5099377;28;20451;-85
2021/08/20 03:38:34;;;;;;;1999.90;999.90;;;16.40;99.90;;;;;;5101718;28;20556;-86
2021/08/20 03:41:01;;;;;;;1999.90;999.90;;;16.40;99.90;;;;;;5104956;28;20486;-86
2021/08/20 03:43:30;;;;;;;1999.90;999.90;;;16.40;99.90;;;;;;5105937;28;20446;-86
2021/08/20 03:45:56;;;;;;;1999.90;999.90;;;16.30;99.90;;;;;;5110163;28;20492;-85
2021/08/20 03:48:23;;;;;;;1999.90;999.90;;;16.30;99.90;;;;;;5099826;28;20980;-86
2021/08/20 03:50:51;;;;;;;1999.90;999.90;;;16.30;99.90;;;;;;5098390;28;20479;-86
2021/08/20 03:53:17;;;;;;;1999.90;999.90;;;16.40;99.90;;;;;;5096473;28;20959;-86
2021/08/20 03:55:44;;;;;;;1999.90;999.90;;;16.40;99.90;;;;;;5095572;28;20464;-87
2021/08/20 03:58:13;;;;;;;1999.90;999.90;;;16.30;99.90;;;;;;5094934;28;20457;-87
2021/08/20 04:00:44;;;;;;;1999.90;999.90;;;16.30;99.90;;;;;;5095352;28;20560;-88
2021/08/20 04:03:10;;;;;;;1999.90;999.90;;;16.30;99.90;;;;;;5096367;28;20450;-88
2021/08/20 04:05:37;;;;;;;1999.90;999.90;;;16.30;99.90;;;;;;5095330;28;20454;-86
2021/08/20 04:08:05;;;;;;;1999.90;999.90;;;16.30;99.90;;;;;;5095053;28;20463;-88
2021/08/20 04:10:32;;;;;;;1999.90;999.90;;;16.30;99.90;;;;;;5095307;28;20471;-89
2021/08/20 04:12:58;;;;;;;1999.90;999.90;;;16.30;99.90;;;;;;5094917;28;20453;-87
2021/08/20 04:15:26;;;;;;;1999.90;999.90;;;16.30;99.90;;;;;;5095194;28;20461;-87
2021/08/20 04:17:54;;;;;;;1999.90;999.90;;;16.30;99.90;;;;;;5094401;28;20999;-88
2021/08/20 04:20:24;;;;;;;1999.90;999.90;;;16.30;99.90;;;;;;5094540;28;20521;-87
2021/08/20 04:22:51;;;;;;;1999.90;999.90;;;16.30;99.90;;;;;;5095272;28;20823;-87
2021/08/20 04:25:17;;;;;;;1999.90;999.90;;;16.30;99.90;;;;;;5095156;28;20455;-87
2021/08/20 04:27:44;;;;;;;1999.90;999.90;;;16.10;99.90;;;;;;5094266;28;20454;-86
2021/08/20 04:30:11;;;;;;;1999.90;999.90;;;16.00;99.90;;;;;;5094480;28;20549;-90
2021/08/20 04:32:38;;;;;;;1999.90;999.90;;;16.00;99.90;;;;;;5094318;28;20464;-87
2021/08/20 04:35:07;;;;;;;1999.90;999.90;;;16.00;99.90;;;;;;5084781;28;20453;-87
2021/08/20 04:37:34;;;;;;;1999.90;999.90;;;16.10;99.90;;;;;;5105114;28;20444;-88
2021/08/20 04:40:01;;;;;;;1999.90;999.90;;;16.00;99.90;;;;;;5105156;28;20506;-87
2021/08/20 04:42:28;;;;;;;1999.90;999.90;;;16.10;99.90;;;;;;5096980;28;20461;-86
2021/08/20 04:44:55;;;;;;;1999.90;999.90;;;16.10;99.90;;;;;;5088855;28;21197;-87
2021/08/20 04:47:21;;;;;;;1999.90;999.90;;;16.10;99.90;;;;;;5092055;28;20456;-88
2021/08/20 04:49:48;;;;;;;1999.90;999.90;;;16.00;99.90;;;;;;5073874;28;20449;-87
2021/08/20 04:52:16;;;;;;;1999.90;999.90;;;16.00;99.90;;;;;;5083889;28;20451;-86
2021/08/20 04:54:44;;;;;;;1999.90;999.90;;;16.10;99.90;;;;;;5092408;28;20477;-85
2021/08/20 04:57:10;;;;;;;1999.90;999.90;;;16.10;99.90;;;;;;5092470;28;20935;-86
2021/08/20 04:59:37;;;;;;;1999.90;999.90;;;16.10;99.90;;;;;;5092309;28;20452;-87
2021/08/20 05:02:04;;;;;;;1999.90;999.90;;;16.10;99.90;;;;;;5092067;28;20479;-85
2021/08/20 05:04:34;;;;;;;1999.90;999.90;;;16.10;99.90;;;;;;5092126;28;20466;-86
2021/08/20 05:07:01;;;;;;;1999.90;999.90;;;16.10;99.90;;;;;;5081782;28;20454;-87
2021/08/20 05:09:29;;;;;;;1999.90;999.90;;;16.10;99.90;;;;;;5072906;28;20552;-87
2021/08/20 05:11:56;;;;;;;1999.90;999.90;;;16.10;99.90;;;;;;5074698;28;20472;-86
2021/08/20 05:14:23;;;;;;;1999.90;999.90;;;16.20;99.90;;;;;;5081283;28;20481;-87
2021/08/20 05:16:49;;;;;;;1999.90;999.90;;;16.20;99.90;;;;;;5079599;28;20454;-86
2021/08/20 05:19:16;;;;;;;1999.90;999.90;;;16.20;99.90;;;;;;5084945;28;20458;-86
2021/08/20 05:21:43;;;;;;;1999.90;999.90;;;16.10;99.90;;;;;;5090235;28;20504;-86
2021/08/20 05:24:10;;;;;;;1999.90;999.90;;;16.10;99.90;;;;;;5092996;28;20508;-87
2021/08/20 05:26:38;;;;;;;1999.90;999.90;;;16.30;99.90;;;;;;5092768;28;20454;-87
2021/08/20 05:29:05;;;;;;;1999.90;999.90;;;16.30;99.90;;;;;;5092565;28;20953;-87
2021/08/20 05:31:32;;;;;;;1999.90;999.90;;;16.40;99.90;;;;;;5093367;28;20479;-86
2021/08/20 05:33:59;;;;;;;1999.90;999.90;;;16.40;99.90;;;;;;5094608;28;20460;-86
2021/08/20 05:36:27;;;;;;;1999.90;999.90;;;16.40;99.90;;;;;;5092421;28;20990;-86
2021/08/20 05:38:54;;;;;;;1999.90;999.90;;;16.40;99.90;;;;;;5093118;28;20870;-87
2021/08/20 05:41:21;;;;;;;1999.90;999.90;;;16.50;99.90;;;;;;5096579;28;20478;-87
2021/08/20 05:43:50;;;;;;;1999.90;999.90;;;16.50;99.90;;;;;;5094755;28;20456;-90
2021/08/20 05:46:26;;;;;;;1999.90;999.90;;;16.60;99.90;;;;;;5086614;28;20450;-89
2021/08/20 05:48:53;;;;;;;1999.90;999.90;;;16.50;99.90;;;;;;5094233;28;20894;-89
2021/08/20 05:51:20;;;;;;;1999.90;999.90;;;16.50;99.90;;;;;;5092762;28;20555;-85
2021/08/20 05:53:47;;;;;;;1999.90;999.90;;;16.40;99.90;;;;;;5097009;28;20474;-87
2021/08/20 05:56:14;;;;;;;1999.90;999.90;;;16.40;99.90;;;;;;5093584;28;20900;-88
2021/08/20 05:58:41;;;;;;;1999.90;999.90;;;16.60;99.90;;;;;;5093109;28;20458;-88
2021/08/20 06:01:09;;;;;;;1999.90;999.90;;;16.70;99.90;;;;;;5088087;28;20490;-86
2021/08/20 06:03:36;;;;;;;1999.90;999.90;;;16.70;99.90;;;;;;5095107;28;20455;-86
2021/08/20 06:06:02;;;;;;;1999.90;999.90;;;16.70;99.90;;;;;;5090269;28;20460;-87
2021/08/20 06:08:29;;;;;;;1999.90;999.90;;;16.80;99.90;;;;;;5093107;28;20838;-88
2021/08/20 06:10:56;;;;;;;1999.90;999.90;;;16.80;99.90;;;;;;5090520;28;20511;-87
2021/08/20 06:13:23;;;;;;;1999.90;999.90;;;16.80;99.90;;;;;;5092086;28;20456;-87
2021/08/20 06:15:50;;;;;;;1999.90;999.90;;;16.80;99.90;;;;;;5072220;28;20450;-88
2021/08/20 06:18:18;;;;;;;1999.90;999.90;;;16.90;99.90;;;;;;5072640;28;20504;-87
2021/08/20 06:20:45;;;;;;;1999.90;999.90;;;16.90;99.90;;;;;;5071716;28;20490;-87
2021/08/20 06:23:11;;;;;;;1999.90;999.90;;;17.00;99.90;;;;;;5088398;28;20455;-88
2021/08/20 06:25:38;;;;;;;1999.90;999.90;;;17.10;99.90;;;;;;5090129;28;20448;-87
2021/08/20 06:28:05;;;;;;;1999.90;999.90;;;17.10;99.90;;;;;;5091168;28;20464;-86
2021/08/20 06:30:32;;;;;;;1999.90;999.90;;;17.00;99.90;;;;;;5090322;28;20470;-86
2021/08/20 06:32:59;;;;;;;1999.90;999.90;;;17.10;99.90;;;;;;5088821;28;21005;-88
2021/08/20 06:35:27;;;;;;;1999.90;999.90;;;17.20;99.90;;;;;;5090092;28;20467;-86
2021/08/20 06:37:54;;;;;;;1999.90;999.90;;;17.30;99.90;;;;;;5092136;28;20452;-88
2021/08/20 06:40:21;;;;;;;1999.90;999.90;;;17.40;99.90;;;;;;5091636;28;20485;-87
2021/08/20 06:42:48;;;;;;;1999.90;999.90;;;17.60;99.90;;;;;;5091317;28;20460;-87
2021/08/20 06:45:14;;;;;;;1999.90;999.90;;;17.60;99.90;;;;;;5088932;28;20450;-88
2021/08/20 06:47:41;;;;;;;1999.90;999.90;;;17.50;99.90;;;;;;5087053;28;20553;-88
2021/08/20 06:50:12;;;;;;;1999.90;999.90;;;17.60;99.90;;;;;;5086133;28;21081;-88
2021/08/20 06:52:40;;;;;;;1999.90;999.90;;;17.60;99.90;;;;;;5086551;28;20836;-88
2021/08/20 06:55:08;;;;;;;1999.90;999.90;;;17.70;99.90;;;;;;5091111;28;20454;-86
2021/08/20 06:57:35;;;;;;;1999.90;999.90;;;17.70;99.90;;;;;;5088779;28;20538;-88
2021/08/20 07:00:01;;;;;;;1999.90;999.90;;;17.70;99.90;;;;;;5090047;28;20452;-88
2021/08/20 07:02:29;;;;;;;1999.90;999.90;;;17.70;99.90;;;;;;5086702;28;20916;-87
2021/08/20 07:04:55;;;;;;;1999.90;999.90;;;17.90;99.90;;;;;;5091497;28;20518;-88
2021/08/20 07:07:22;;;;;;;1999.90;999.90;;;17.80;99.90;;;;;;5082835;28;20857;-87
2021/08/20 07:09:51;;;;;;;1999.90;999.90;;;17.70;99.90;;;;;;5091531;28;20470;-88
2021/08/20 07:12:20;;;;;;;1999.90;999.90;;;17.80;99.90;;;;;;5091712;28;20826;-88
2021/08/20 07:14:47;;;;;;;1999.90;999.90;;;17.80;99.90;;;;;;5091645;28;20453;-87
2021/08/20 07:17:14;;;;;;;1999.90;999.90;;;17.70;99.90;;;;;;5091865;28;20464;-87
2021/08/20 07:19:41;;;;;;;1999.90;999.90;;;17.80;99.90;;;;;;5091954;28;20442;-89
2021/08/20 07:22:08;;;;;;;1999.90;999.90;;;17.80;99.90;;;;;;5087034;28;20577;-87
2021/08/20 07:24:36;;;;;;;1999.90;999.90;;;17.80;99.90;;;;;;5085381;28;20462;-86
2021/08/20 07:27:05;;;;;;;1999.90;999.90;;;17.80;99.90;;;;;;5087091;28;20460;-88
2021/08/20 07:29:32;;;;;;;1999.90;999.90;;;17.80;99.90;;;;;;5090410;28;20448;-88
2021/08/20 07:31:59;;;;;;;1999.90;999.90;;;17.80;99.90;;;;;;5080670;28;20476;-87
2021/08/20 07:34:26;;;;;;;1999.90;999.90;;;17.90;99.90;;;;;;5093202;28;20452;-87
2021/08/20 07:36:52;;;;;;;1999.90;999.90;;;17.90;99.90;;;;;;5095103;28;20450;-87
2021/08/20 07:39:19;;;;;;;1999.90;999.90;;;18.00;99.90;;;;;;5095606;28;20437;-88
2021/08/20 07:41:46;;;;;;;1999.90;999.90;;;18.10;99.90;;;;;;5095270;28;20537;-88
2021/08/20 07:44:14;;;;;;;1999.90;999.90;;;18.20;99.90;;;;;;5095663;28;20445;-88
2021/08/20 07:46:41;;;;;;;1999.90;999.90;;;18.30;99.90;;;;;;5117363;28;20454;-88
2021/08/20 07:49:08;;;;;;;1999.90;999.90;;;18.30;99.90;;;;;;5096147;28;20443;-88
2021/08/20 07:51:35;;;;;;;1999.90;999.90;;;18.30;99.90;;;;;;5088165;28;20457;-87
2021/08/20 07:54:02;;;;;;;1999.90;999.90;;;18.40;99.90;;;;;;5084768;28;20455;-88
2021/08/20 07:56:29;;;;;;;1999.90;999.90;;;18.50;99.90;;;;;;5084683;28;20445;-87
2021/08/20 07:58:56;;;;;;;1999.90;999.90;;;18.60;99.90;;;;;;5089877;28;20962;-86
2021/08/20 08:01:24;;;;;;;1999.90;999.90;;;18.50;99.90;;;;;;5094523;28;20492;-88
2021/08/20 08:03:51;;;;;;;1999.90;999.90;;;18.50;99.90;;;;;;5086771;28;20456;-88
2021/08/20 08:06:18;;;;;;;1999.90;999.90;;;18.60;99.90;;;;;;5090788;28;20461;-88
2021/08/20 08:08:45;;;;;;;1999.90;999.90;;;18.70;99.90;;;;;;5086513;28;20460;-88
2021/08/20 08:11:11;;;;;;;1999.90;999.90;;;18.80;99.90;;;;;;5094309;28;20471;-87
2021/08/20 08:13:38;;;;;;;1999.90;999.90;;;18.80;99.90;;;;;;5095214;28;20922;-87
2021/08/20 08:16:05;;;;;;;1999.90;999.90;;;18.80;99.90;;;;;;5095112;28;20457;-88
2021/08/20 08:18:33;;;;;;;1999.90;999.90;;;18.70;99.90;;;;;;5094457;28;20456;-86
2021/08/20 08:21:00;;;;;;;1999.90;999.90;;;18.70;99.90;;;;;;5094215;28;20489;-87
2021/08/20 08:23:27;;;;;;;1999.90;999.90;;;18.70;99.90;;;;;;5094441;28;20451;-88
2021/08/20 08:25:55;;;;;;;1999.90;999.90;;;18.70;99.90;;;;;;5094069;28;20440;-88
2021/08/20 08:28:21;;;;;;;1999.90;999.90;;;18.70;99.90;;;;;;5094911;28;20454;-89
2021/08/20 08:30:49;;;;;;;1999.90;999.90;;;18.70;99.90;;;;;;5104790;28;20457;-86
2021/08/20 08:33:17;;;;;;;1999.90;999.90;;;18.70;99.90;;;;;;5100280;28;20497;-88
2021/08/20 08:35:46;;;;;;;1999.90;999.90;;;18.70;99.90;;;;;;5093106;28;20451;-86
2021/08/20 08:38:14;;;;;;;1999.90;999.90;;;18.80;99.90;;;;;;5097190;28;20451;-86
2021/08/20 08:40:45;;;;;;;1999.90;999.90;;;18.90;99.90;;;;;;5095939;28;20471;-86
2021/08/20 08:43:13;;;;;;;1999.90;999.90;;;18.80;99.90;;;;;;5095718;28;20839;-87
2021/08/20 08:45:41;;;;;;;1999.90;999.90;;;18.90;99.90;;;;;;5094480;28;20531;-88
2021/08/20 08:48:09;;;;;;;1999.90;999.90;;;19.00;99.90;;;;;;5094743;28;20457;-86
2021/08/20 08:50:37;;;;;;;1999.90;999.90;;;19.20;99.90;;;;;;5094461;28;20464;-88
2021/08/20 08:53:05;;;;;;;1999.90;999.90;;;19.20;99.90;;;;;;5091606;28;20450;-86
2021/08/20 08:55:32;;;;;;;1999.90;999.90;;;19.10;99.90;;;;;;5093694;28;20443;-86
2021/08/20 08:57:59;;;;;;;1999.90;999.90;;;19.10;99.90;;;;;;5094773;28;20775;-87
2021/08/20 09:00:30;;;;;;;1999.90;999.90;;;19.10;99.90;;;;;;5093673;28;20460;-90
2021/08/20 09:02:57;;;;;;;1999.90;999.90;;;19.10;99.90;;;;;;5094068;28;20488;-87
2021/08/20 09:05:24;;;;;;;1999.90;999.90;;;19.30;99.90;;;;;;5093439;28;20956;-87
2021/08/20 09:07:54;;;;;;;1999.90;999.90;;;19.70;99.90;;;;;;5095492;28;20456;-89
2021/08/20 09:10:24;;;;;;;1999.90;999.90;;;20.10;99.90;;;;;;5074936;28;20477;-86
2021/08/20 09:12:58;;;;;;;1999.90;999.90;;;20.60;99.90;;;;;;5085607;28;20442;-86
2021/08/20 09:15:27;;;;;;;1999.90;999.90;;;21.00;99.90;;;;;;5099451;28;20450;-86
2021/08/20 09:17:56;;;;;;;1999.90;999.90;;;21.10;99.90;;;;;;5098309;28;20470;-87
2021/08/20 09:20:25;;;;;;;1999.90;999.90;;;21.30;99.90;;;;;;5086986;28;21001;-85
2021/08/20 09:22:53;;;;;;;1999.90;999.90;;;21.60;99.90;;;;;;5100631;28;20485;-87
2021/08/20 09:25:36;;;;;;;1999.90;999.90;;;21.70;99.90;;;;;;5097278;28;20445;-86
2021/08/20 09:28:17;;;;;;;1999.90;999.90;;;21.50;99.90;;;;;;5098821;28;20454;-87
2021/08/20 09:30:59;;;;;;;1999.90;999.90;;;21.70;99.90;;;;;;5091531;28;20471;-86
2021/08/20 09:33:27;;;;;;;1999.90;999.90;;;21.90;99.90;;;;;;5099662;28;20545;-85
2021/08/20 09:35:59;;;;;;;1999.90;999.90;;;22.30;99.90;;;;;;5105598;28;20514;-85
2021/08/20 09:38:26;;;;;;;1999.90;999.90;;;22.80;99.90;;;;;;5095888;28;20450;-85
2021/08/20 09:40:58;;;;;;;1999.90;999.90;;;23.10;99.90;;;;;;5095815;28;20470;-86
2021/08/20 09:43:29;;;;;;;1999.90;999.90;;;;;;;;;;5094432;28;20634;-85
2021/08/20 09:45:58;;;;;;;1999.90;999.90;;;23.80;99.90;;;;;;5094163;28;20423;-85
2021/08/20 09:48:50;;;;;;;1999.90;999.90;;;24.10;99.90;;;;;;5097082;28;20467;-86
2021/08/20 09:51:43;;;;;;;1999.90;999.90;;;24.60;99.90;;;;;;5079930;28;20478;-86
2021/08/20 09:54:13;;;;;;;1999.90;999.90;;;24.90;99.90;;;;;;5087582;28;20446;-87
2021/08/20 09:56:41;;;;;;;1999.90;999.90;;;25.00;99.90;;;;;;5096777;28;20455;-86
2021/08/20 09:59:10;;;;;;;1999.90;999.90;;;25.00;99.90;;;;;;5096743;28;20961;-83
2021/08/20 10:01:40;;;;;;;1999.90;999.90;;;24.90;99.90;;;;;;5096518;28;20492;-85
2021/08/20 10:04:09;;;;;;;1999.90;999.90;;;24.60;99.90;;;;;;5098289;28;20446;-86
2021/08/20 10:06:38;;;;;;;1999.90;999.90;;;24.30;99.90;;;;;;5095110;28;20442;-85
2021/08/20 10:09:07;;;;;;;1999.90;999.90;;;24.00;99.90;;;;;;5095013;28;20449;-84
2021/08/20 10:11:37;;;;;;;1999.90;999.90;;;23.80;99.90;;;;;;5096993;28;21044;-83
2021/08/20 10:14:06;;;;;;;1999.90;999.90;;;23.60;99.90;;;;;;5095784;28;20461;-84
2021/08/20 10:16:35;;;;;;;1999.90;999.90;;;23.80;99.90;;;;;;5096023;28;20494;-83
2021/08/20 10:19:03;;;;;;;1999.90;999.90;;;24.20;99.90;;;;;;5097094;28;20454;-85
2021/08/20 10:21:32;;;;;;;1999.90;999.90;;;24.40;99.90;;;;;;5095625;28;20484;-85
2021/08/20 10:24:00;;;;;;;1999.90;999.90;;;24.00;99.90;;;;;;5094982;28;21126;-83
2021/08/20 10:26:28;;;;;;;1999.90;999.90;;;24.40;99.90;;;;;;5096201;28;20617;-85
2021/08/20 10:28:55;;;;;;;1999.90;999.90;;;25.00;99.90;;;;;;5093147;28;20815;-85
2021/08/20 10:31:25;;;;;;;1999.90;999.90;;;25.50;99.90;;;;;;5093999;28;20477;-84
2021/08/20 10:36:40;;;;;;;1999.90;999.90;;;25.80;99.90;;;;;;5078915;28;20471;-84
2021/08/20 10:39:08;;;;;;;1999.90;999.90;;;26.00;99.90;;;;;;5081554;28;20466;-84
2021/08/20 10:41:35;;;;;;;1999.90;999.90;;;25.60;99.90;;;;;;5075908;28;20486;-84
2021/08/20 10:44:03;;;;;;;1999.90;999.90;;;25.10;99.90;;;;;;5071981;28;20502;-84
2021/08/20 10:47:06;;;;;;;1999.90;999.90;;;24.90;99.90;;;;;;5063592;28;20447;-85
2021/08/20 10:49:45;;;;;;;1999.90;999.90;;;24.40;99.90;;;;;;5051240;28;20455;-85
2021/08/20 10:52:29;;;;;;;1999.90;999.90;;;24.00;99.90;;;;;;5075493;28;20442;-84
2021/08/20 10:55:21;;;;;;;1999.90;999.90;;;23.90;99.90;;;;;;5065534;28;20490;-84
2021/08/20 10:58:11;;;;;;;1999.90;999.90;;;24.20;99.90;;;;;;5071462;28;20479;-85
2021/08/20 11:00:40;;;;;;;1999.90;999.90;;;24.50;99.90;;;;;;5070226;28;20463;-84
2021/08/20 11:03:09;;;;;;;1999.90;999.90;;;25.10;99.90;;;;;;5063843;28;20540;-83
2021/08/20 11:05:42;;;;;;;1999.90;999.90;;;25.00;99.90;;;;;;5066584;28;20907;-85
2021/08/20 11:08:41;;;;;;;1999.90;999.90;;;25.10;99.90;;;;;;5069786;28;20458;-85
2021/08/20 11:11:44;;;;;;;1999.90;999.90;;;24.90;99.90;;;;;;5043317;28;20476;-83
2021/08/20 11:14:34;;;;;;;1999.90;999.90;;;24.50;99.90;;;;;;5079553;28;20466;-84
2021/08/20 11:17:01;;;;;;;1999.90;999.90;;;24.00;99.90;;;;;;5060460;28;20467;-85
2021/08/20 11:19:52;;;;;;;1999.90;999.90;;;23.60;99.90;;;;;;5063287;28;20456;-84
2021/08/20 11:22:23;;;;;;;1999.90;999.90;;;23.40;99.90;;;;;;5074416;28;20493;-85
2021/08/20 11:25:15;;;;;;;1999.90;999.90;;;23.80;99.90;;;;;;5076966;28;20484;-83
2021/08/20 11:27:55;;;;;;;1999.90;999.90;;;24.60;99.90;;;;;;5071190;28;20450;-85
2021/08/20 11:30:22;;;;;;;1999.90;999.90;;;25.40;99.90;;;;;;5065578;28;20901;-85
2021/08/20 11:32:49;;;;;;;1999.90;999.90;;;25.80;99.90;;;;;;5056684;28;20511;-85
2021/08/20 11:35:27;;;;;;;1999.90;999.90;;;26.40;99.90;;;;;;5070754;28;20487;-86
2021/08/20 11:37:56;;;;;;;1999.90;999.90;;;26.70;99.90;;;;;;5053438;28;20456;-87
2021/08/20 11:40:23;;;;;;;1999.90;999.90;;;27.20;99.90;;;;;;5055303;28;20473;-85
2021/08/20 11:43:05;;;;;;;1999.90;999.90;;;27.30;99.90;;;;;;5083869;28;21036;-86
2021/08/20 11:45:32;;;;;;;1999.90;999.90;;;27.00;99.90;;;;;;5069753;28;20466;-85
2021/08/20 11:47:59;;;;;;;1999.90;999.90;;;26.80;99.90;;;;;;5063992;28;20474;-84
2021/08/20 11:50:26;;;;;;;1999.90;999.90;;;26.50;99.90;;;;;;5064629;28;20812;-83
2021/08/20 11:52:54;;;;;;;1999.90;999.90;;;26.10;99.90;;;;;;5059271;28;20440;-83
2021/08/20 11:55:22;;;;;;;1999.90;999.90;;;25.60;99.90;;;;;;5087340;28;20477;-85
2021/08/20 11:57:49;;;;;;;1999.90;999.90;;;25.20;99.90;;;;;;5078936;28;20810;-84
2021/08/20 12:00:16;;;;;;;1999.90;999.90;;;25.00;99.90;;;;;;5060465;28;20457;-84
2021/08/20 12:02:43;;;;;;;1999.90;999.90;;;25.30;99.90;;;;;;5061060;28;20570;-85
2021/08/20 12:05:18;;;;;;;1999.90;999.90;;;25.80;99.90;;;;;;5068574;28;20490;-84
2021/08/20 12:07:46;;;;;;;1999.90;999.90;;;26.60;99.90;;;;;;5067936;28;20475;-82
2021/08/20 12:10:16;;;;;;;1999.90;999.90;;;26.80;99.90;;;;;;5053643;28;20445;-84